This is the latest recevied weather packets stored in our database for station/object HP1COO-13. If no packets are shown the sender has not sent any weather packets the latest 10 day(s).
| Time | Temp. | Humidity | Pressure | Rain* | Wind** | Luminosity | Snow |
|---|---|---|---|---|---|---|---|
| 1777532431 | 25° C | 94% | 1005.9 hPa | 0 mm | - | - | - |
| 1777531851 | 25° C | 95% | 1005.9 hPa | 0 mm | - | - | - |
| 1777530625 | 25° C | 95% | 1006 hPa | 0 mm | - | - | - |
| 1777527031 | 25° C | 95% | 1006.9 hPa | 0 mm | - | - | - |
| 1777525827 | 25° C | 94% | 1007.3 hPa | 0 mm | - | - | - |
| 1777517475 | 26.11° C | 93% | 1007.2 hPa | 0 mm | - | - | - |
| 1777514424 | 26.11° C | 93% | 1006.9 hPa | 0 mm | - | - | - |
| 1777510830 | 26.11° C | 95% | 1006.4 hPa | 0 mm | - | - | - |
| 1777509023 | 25.56° C | 97% | 1005.9 hPa | 0.25 mm | - | - | - |
| 1777504848 | 26.11° C | 99% | 1005.1 hPa | 9.4 mm | - | - | - |
| 1777497620 | 25° C | 98% | 1004.7 hPa | 78.49 mm | - | - | - |
| 1777491617 | 30° C | 82% | 1004.4 hPa | 0.25 mm | - | - | - |
| 1777491035 | 30° C | 82% | 1004.8 hPa | 0.25 mm | - | - | - |
| 1777489228 | 28.33° C | 89% | 1005.3 hPa | 1.78 mm | - | - | - |
| 1777487421 | 27.78° C | 91% | 1005.7 hPa | 6.1 mm | - | - | - |
| 1777485033 | 28.33° C | 84% | 1006.6 hPa | 5.08 mm | - | - | - |
| 1777483226 | 33.89° C | 60% | 1006.9 hPa | 0 mm | - | - | - |
| 1777476621 | 32.78° C | 65% | 1008.2 hPa | 0 mm | - | - | - |
| 1777473629 | 32.22° C | 67% | 1008.5 hPa | 0 mm | - | - | - |
| 1777473026 | 32.22° C | 67% | 1008.5 hPa | 0 mm | - | - | - |
| 1777470617 | 31.11° C | 71% | 1008.5 hPa | 0 mm | - | - | - |
| 1777470035 | 30.56° C | 73% | 1008.5 hPa | 0 mm | - | - | - |
| 1777467626 | 29.44° C | 78% | 1008.2 hPa | 0 mm | - | - | - |
| 1777467024 | 29.44° C | 78% | 1008.1 hPa | 0 mm | - | - | - |
| 1777466421 | 28.89° C | 80% | 1008 hPa | 0 mm | - | - | - |
* Rain latest hour (hover to see other rain measurements)
** Current wind speed in m/s (hover to see current wind gust speed)